createdAt,value
2022-11-24T00:01:17.823Z,9.30
2022-11-24T00:03:52.350Z,9.30
2022-11-24T00:06:19.226Z,9.30
2022-11-24T00:08:46.950Z,9.30
2022-11-24T00:11:21.596Z,9.30
2022-11-24T00:13:50.786Z,9.30
2022-11-24T00:16:24.752Z,9.40
2022-11-24T00:18:53.990Z,9.30
2022-11-24T00:21:23.271Z,9.40
2022-11-24T00:23:51.167Z,9.40
2022-11-24T00:26:34.598Z,9.30
2022-11-24T00:29:05.753Z,9.30
2022-11-24T00:31:39.106Z,9.40
2022-11-24T00:34:11.859Z,9.40
2022-11-24T00:36:41.088Z,9.40
2022-11-24T00:39:12.397Z,9.40
2022-11-24T00:41:39.793Z,9.40
2022-11-24T00:44:08.251Z,9.40
2022-11-24T00:46:36.321Z,9.40
2022-11-24T00:49:03.704Z,9.40
2022-11-24T00:51:30.858Z,9.40
2022-11-24T00:53:59.174Z,9.50
2022-11-24T00:56:27.171Z,9.40
2022-11-24T00:58:55.279Z,9.40
2022-11-24T01:01:24.833Z,9.50
2022-11-24T01:03:55.353Z,9.50
2022-11-24T01:06:25.049Z,9.60
2022-11-24T01:08:52.686Z,9.50
2022-11-24T01:11:24.041Z,9.50
2022-11-24T01:13:57.730Z,9.50
2022-11-24T01:16:35.168Z,9.60
2022-11-24T01:19:03.950Z,9.50
2022-11-24T01:21:30.901Z,9.60
2022-11-24T01:23:58.809Z,9.50
2022-11-24T01:26:25.619Z,9.50
2022-11-24T01:28:54.835Z,9.60
2022-11-24T01:31:22.582Z,9.50
2022-11-24T01:33:49.536Z,9.60
2022-11-24T01:36:16.815Z,9.50
2022-11-24T01:38:43.684Z,9.50
2022-11-24T01:41:24.554Z,9.50
2022-11-24T01:43:54.111Z,9.50
2022-11-24T01:46:42.116Z,9.60
2022-11-24T01:49:09.132Z,9.50
2022-11-24T01:51:57.933Z,9.50
2022-11-24T01:54:32.918Z,9.50
2022-11-24T01:57:16.741Z,9.60
2022-11-24T01:59:46.552Z,9.60
2022-11-24T02:02:16.526Z,9.70
2022-11-24T02:04:45.170Z,9.70
2022-11-24T02:07:13.859Z,9.70
2022-11-24T02:09:56.515Z,9.70
2022-11-24T02:12:26.689Z,9.80
2022-11-24T02:14:55.988Z,9.80
2022-11-24T02:17:23.178Z,9.80
2022-11-24T02:19:57.457Z,9.80
2022-11-24T02:22:55.022Z,9.80
2022-11-24T02:25:26.120Z,9.90
2022-11-24T02:27:55.971Z,9.80
2022-11-24T02:30:22.974Z,9.80
2022-11-24T02:32:52.395Z,9.80
2022-11-24T02:35:19.978Z,9.80
2022-11-24T02:37:46.874Z,9.90
2022-11-24T02:40:24.776Z,9.90
2022-11-24T02:42:55.299Z,9.90
2022-11-24T02:45:23.544Z,9.90
2022-11-24T02:47:50.511Z,9.90
2022-11-24T02:50:17.495Z,9.90
2022-11-24T02:52:45.372Z,9.90
2022-11-24T02:55:12.247Z,9.90
2022-11-24T02:57:40.099Z,10.00
2022-11-24T03:00:07.761Z,9.90
2022-11-24T03:02:34.746Z,9.90
2022-11-24T03:05:01.806Z,9.90
2022-11-24T03:07:28.863Z,9.90
2022-11-24T03:09:55.813Z,9.80
2022-11-24T03:12:23.695Z,9.80
2022-11-24T03:14:50.531Z,9.80
2022-11-24T03:17:18.827Z,9.80
2022-11-24T03:19:45.965Z,9.70
2022-11-24T03:22:14.591Z,9.70
2022-11-24T03:24:41.683Z,9.60
2022-11-24T03:27:09.552Z,9.50
2022-11-24T03:29:36.418Z,9.50
2022-11-24T03:32:05.127Z,9.60
2022-11-24T03:34:32.226Z,9.50
2022-11-24T03:37:01.335Z,9.50
2022-11-24T03:39:29.164Z,9.50
2022-11-24T03:41:55.986Z,9.50
2022-11-24T03:44:23.348Z,9.50
2022-11-24T03:46:52.026Z,9.50
2022-11-24T03:49:18.804Z,9.50
2022-11-24T03:51:46.826Z,9.40
2022-11-24T03:54:13.707Z,9.50
2022-11-24T03:56:40.626Z,9.50
2022-11-24T03:59:07.573Z,9.50
2022-11-24T04:01:34.963Z,9.40
2022-11-24T04:04:01.855Z,9.40
2022-11-24T04:06:29.696Z,9.40
2022-11-24T04:08:56.768Z,9.30
2022-11-24T04:11:42.714Z,9.20
2022-11-24T04:14:13.696Z,9.20
2022-11-24T04:16:42.005Z,9.20
2022-11-24T04:19:09.245Z,9.10
2022-11-24T04:21:37.153Z,9.00
2022-11-24T04:24:07.095Z,9.00
2022-11-24T04:26:35.030Z,9.00
2022-11-24T04:29:01.865Z,8.90
2022-11-24T04:31:31.851Z,8.90
2022-11-24T04:33:59.173Z,8.90
2022-11-24T04:36:26.172Z,8.80
2022-11-24T04:39:23.848Z,8.70
2022-11-24T04:41:40.979Z,8.70
2022-11-24T04:44:07.778Z,8.80
2022-11-24T04:46:36.257Z,8.70
2022-11-24T04:49:03.093Z,8.70
2022-11-24T04:51:29.992Z,8.70
2022-11-24T04:53:57.282Z,8.70
2022-11-24T04:56:24.346Z,8.70
2022-11-24T04:58:51.138Z,8.70
2022-11-24T05:01:19.038Z,8.70
2022-11-24T05:03:45.937Z,8.60
2022-11-24T05:06:12.871Z,8.60
2022-11-24T05:08:39.680Z,8.60
2022-11-24T05:11:07.420Z,8.60
2022-11-24T05:13:34.492Z,8.60
2022-11-24T05:16:26.925Z,8.60
2022-11-24T05:18:55.372Z,8.50
2022-11-24T05:21:22.198Z,8.60
2022-11-24T05:23:49.156Z,8.60
2022-11-24T05:26:19.135Z,8.50
2022-11-24T05:28:46.106Z,8.40
2022-11-24T05:31:12.874Z,8.40
2022-11-24T05:33:40.060Z,8.50
2022-11-24T05:36:30.215Z,8.40
2022-11-24T05:38:58.124Z,8.40
2022-11-24T05:41:26.382Z,8.40
2022-11-24T05:43:53.254Z,8.40
2022-11-24T05:46:22.302Z,8.40
2022-11-24T05:48:49.496Z,8.40
2022-11-24T05:51:18.577Z,8.40
2022-11-24T05:53:45.522Z,8.50
2022-11-24T05:56:12.339Z,8.40
2022-11-24T05:58:39.210Z,8.40
2022-11-24T06:01:07.268Z,8.40
2022-11-24T06:03:38.040Z,8.40
2022-11-24T06:06:07.370Z,8.40
2022-11-24T06:08:36.217Z,8.40
2022-11-24T06:11:17.739Z,8.40
2022-11-24T06:13:46.401Z,8.40
2022-11-24T06:16:13.683Z,8.30
2022-11-24T06:18:40.684Z,8.30
2022-11-24T06:21:11.994Z,8.30
2022-11-24T06:23:41.241Z,8.30
2022-11-24T06:26:09.214Z,8.40
2022-11-24T06:28:36.409Z,8.30
2022-11-24T06:31:05.058Z,8.30
2022-11-24T06:33:36.948Z,8.30
2022-11-24T06:36:06.228Z,8.30
2022-11-24T06:38:35.940Z,8.30
2022-11-24T06:41:07.919Z,8.30
2022-11-24T06:43:35.948Z,8.30
2022-11-24T06:46:03.971Z,8.30
2022-11-24T06:48:32.621Z,8.30
2022-11-24T06:51:01.092Z,8.20
2022-11-24T06:53:32.410Z,8.30
2022-11-24T06:56:02.871Z,8.20
2022-11-24T06:58:30.995Z,8.10
2022-11-24T07:01:01.000Z,8.10
2022-11-24T07:03:28.985Z,8.10
2022-11-24T07:05:57.918Z,8.00
2022-11-24T07:08:25.828Z,8.10
2022-11-24T07:10:55.219Z,8.10
2022-11-24T07:13:22.359Z,8.10
2022-11-24T07:16:45.766Z,8.10
2022-11-24T07:19:13.330Z,8.10
2022-11-24T07:21:40.160Z,8.00
2022-11-24T07:24:08.904Z,8.10
2022-11-24T07:26:37.892Z,8.00
2022-11-24T07:29:05.472Z,8.00
2022-11-24T07:31:32.371Z,8.00
2022-11-24T07:34:00.286Z,8.00
2022-11-24T07:36:27.286Z,8.00
2022-11-24T07:38:55.179Z,7.90
2022-11-24T07:41:23.132Z,8.00
2022-11-24T07:43:56.004Z,8.00
2022-11-24T07:46:24.115Z,8.00
2022-11-24T07:48:51.438Z,8.10
2022-11-24T07:51:19.404Z,8.10
2022-11-24T07:53:48.379Z,8.00
2022-11-24T07:56:15.406Z,8.10
2022-11-24T07:58:45.974Z,8.10
2022-11-24T08:01:18.205Z,8.10
2022-11-24T08:03:47.895Z,8.10
2022-11-24T08:06:27.363Z,8.10
2022-11-24T08:08:58.088Z,8.20
2022-11-24T08:11:27.337Z,8.20
2022-11-24T08:13:54.200Z,8.20
2022-11-24T08:16:22.757Z,8.20
2022-11-24T08:18:51.586Z,8.30
2022-11-24T08:21:18.850Z,8.30
2022-11-24T08:23:47.671Z,8.30
2022-11-24T08:26:18.968Z,8.30
2022-11-24T08:28:47.237Z,8.30
2022-11-24T08:31:18.768Z,8.40
2022-11-24T08:33:46.772Z,8.50
2022-11-24T08:36:16.876Z,8.40
2022-11-24T08:38:44.888Z,8.50
2022-11-24T08:41:17.259Z,8.50
2022-11-24T08:43:44.301Z,8.60
2022-11-24T08:46:13.685Z,8.60
2022-11-24T08:48:41.676Z,8.60
2022-11-24T08:51:16.108Z,8.60
2022-11-24T08:53:43.872Z,8.70
2022-11-24T08:56:13.413Z,8.70
2022-11-24T08:58:41.898Z,8.70
2022-11-24T09:01:18.318Z,8.70
2022-11-24T09:03:50.725Z,8.70
2022-11-24T09:06:25.592Z,8.80
2022-11-24T09:08:54.566Z,8.90
2022-11-24T09:11:21.881Z,8.80
2022-11-24T09:13:48.919Z,8.90
2022-11-24T09:16:21.621Z,9.00
2022-11-24T09:18:54.585Z,8.90
2022-11-24T09:21:22.328Z,9.00
2022-11-24T09:23:53.238Z,9.00
2022-11-24T09:26:27.920Z,9.10
2022-11-24T09:28:56.384Z,9.10
2022-11-24T09:31:30.029Z,9.00
2022-11-24T09:33:57.930Z,9.20
2022-11-24T09:36:26.311Z,9.10
2022-11-24T09:38:53.686Z,9.30
2022-11-24T09:41:39.895Z,9.20
2022-11-24T09:44:27.969Z,9.20
2022-11-24T09:47:16.837Z,9.20
2022-11-24T09:50:21.672Z,9.20
2022-11-24T09:53:01.547Z,9.30
2022-11-24T09:55:52.211Z,9.40
2022-11-24T09:58:31.238Z,9.50
2022-11-24T10:01:04.461Z,9.50
2022-11-24T10:03:37.632Z,9.60
2022-11-24T10:06:16.864Z,9.60
2022-11-24T10:08:58.875Z,9.60
2022-11-24T10:11:47.165Z,9.70
2022-11-24T10:14:41.250Z,9.80
2022-11-24T10:17:36.485Z,9.80
2022-11-24T10:20:13.400Z,10.00
2022-11-24T10:23:01.435Z,10.40
2022-11-24T10:25:59.669Z,10.80
2022-11-24T10:28:38.124Z,11.00
2022-11-24T10:31:31.596Z,11.50
2022-11-24T10:34:09.781Z,11.60
2022-11-24T10:36:48.303Z,11.70
2022-11-24T10:39:29.614Z,11.80
2022-11-24T10:42:19.675Z,12.00
2022-11-24T10:44:46.630Z,12.40
2022-11-24T10:47:22.822Z,12.50
2022-11-24T10:50:12.337Z,12.40
2022-11-24T10:52:52.819Z,12.30
2022-11-24T10:55:21.599Z,11.90
2022-11-24T10:57:48.857Z,12.00
2022-11-24T11:00:18.890Z,12.30
2022-11-24T11:02:47.845Z,12.50
2022-11-24T11:05:42.223Z,12.80
2022-11-24T11:08:24.737Z,12.80
2022-11-24T11:11:15.129Z,13.10
2022-11-24T11:14:03.118Z,13.60
2022-11-24T11:16:38.639Z,13.60
2022-11-24T11:22:29.772Z,13.70
2022-11-24T11:25:27.971Z,13.70
2022-11-24T11:28:18.875Z,13.20
2022-11-24T11:31:17.976Z,13.30
2022-11-24T11:34:20.860Z,13.30
2022-11-24T11:36:54.801Z,13.50
2022-11-24T11:39:21.606Z,13.60
2022-11-24T11:41:52.076Z,13.80
2022-11-24T11:44:38.525Z,14.00
2022-11-24T11:47:27.025Z,14.20
2022-11-24T11:49:54.409Z,14.50
2022-11-24T11:52:33.142Z,14.70
2022-11-24T11:55:34.240Z,14.20
2022-11-24T11:58:18.097Z,14.70
2022-11-24T12:00:56.737Z,14.70
2022-11-24T12:03:39.901Z,14.60
2022-11-24T12:06:51.876Z,14.50
2022-11-24T12:09:48.317Z,14.20
2022-11-24T12:12:26.255Z,13.60
2022-11-24T12:15:10.984Z,13.60
2022-11-24T12:17:47.962Z,13.70
2022-11-24T12:20:37.455Z,13.50
2022-11-24T12:23:43.009Z,13.20
2022-11-24T12:26:37.434Z,12.90
2022-11-24T12:29:28.638Z,12.50
2022-11-24T12:32:04.459Z,12.40
2022-11-24T12:34:52.103Z,12.50
2022-11-24T12:37:43.812Z,12.50
2022-11-24T12:40:16.337Z,12.20
2022-11-24T12:42:55.520Z,12.00
2022-11-24T12:45:52.756Z,11.90
2022-11-24T12:48:23.693Z,11.80
2022-11-24T12:50:53.667Z,11.80
2022-11-24T12:53:32.792Z,11.70
2022-11-24T12:56:06.443Z,11.70
2022-11-24T12:58:43.188Z,11.70
2022-11-24T13:01:33.774Z,11.80
2022-11-24T13:04:21.929Z,11.80
2022-11-24T13:07:41.316Z,11.80
2022-11-24T13:13:18.256Z,11.80
2022-11-24T13:19:01.396Z,11.80
2022-11-24T13:21:45.612Z,11.80
2022-11-24T13:24:19.479Z,11.80
2022-11-24T13:27:24.729Z,11.80
2022-11-24T13:29:52.312Z,11.90
2022-11-24T13:32:19.140Z,11.80
2022-11-24T13:35:02.261Z,11.80
2022-11-24T13:37:35.395Z,11.70
2022-11-24T13:40:22.980Z,11.60
2022-11-24T13:42:56.371Z,11.60
2022-11-24T13:45:52.542Z,11.60
2022-11-24T13:48:19.571Z,11.60
2022-11-24T13:50:58.680Z,11.60
2022-11-24T13:53:33.576Z,11.50
2022-11-24T13:56:13.910Z,11.60
2022-11-24T13:58:46.495Z,11.50
2022-11-24T14:01:26.692Z,11.50
2022-11-24T14:04:30.529Z,11.50
2022-11-24T14:07:09.070Z,11.50
2022-11-24T14:09:51.240Z,11.50
2022-11-24T14:12:25.626Z,11.50
2022-11-24T14:14:57.151Z,11.60
2022-11-24T14:17:25.093Z,11.60
2022-11-24T14:19:55.544Z,11.50
2022-11-24T14:22:41.529Z,11.50
2022-11-24T14:25:24.275Z,11.50
2022-11-24T14:27:53.851Z,11.50
2022-11-24T14:30:24.006Z,11.50
2022-11-24T14:32:58.723Z,11.50
2022-11-24T14:35:34.374Z,11.50
2022-11-24T14:38:05.896Z,11.40
2022-11-24T14:40:43.339Z,11.40
2022-11-24T14:43:20.026Z,11.40
2022-11-24T14:46:02.418Z,11.40
2022-11-24T14:48:37.793Z,11.40
2022-11-24T14:51:18.156Z,11.30
2022-11-24T14:53:46.922Z,11.30
2022-11-24T14:56:36.728Z,11.30
2022-11-24T14:59:04.959Z,11.30
2022-11-24T15:01:35.274Z,11.30
2022-11-24T15:04:26.522Z,11.30
2022-11-24T15:07:06.025Z,11.20
2022-11-24T15:09:47.958Z,11.10
2022-11-24T15:12:34.449Z,11.00
2022-11-24T15:15:04.583Z,11.00
2022-11-24T15:17:31.859Z,11.00
2022-11-24T15:20:10.840Z,11.00
2022-11-24T15:22:40.803Z,11.00
2022-11-24T15:25:28.386Z,10.90
2022-11-24T15:27:55.657Z,10.90
2022-11-24T15:30:23.096Z,10.90
2022-11-24T15:32:52.850Z,10.80
2022-11-24T15:35:25.961Z,10.80
2022-11-24T15:37:55.485Z,10.80
2022-11-24T15:40:22.623Z,10.80
2022-11-24T15:42:55.301Z,10.80
2022-11-24T15:45:26.565Z,10.70
2022-11-24T15:47:53.538Z,10.60
2022-11-24T15:50:22.206Z,10.70
2022-11-24T15:52:49.276Z,10.70
2022-11-24T15:55:21.909Z,10.60
2022-11-24T15:57:48.958Z,10.60
2022-11-24T16:00:23.706Z,10.50
2022-11-24T16:02:50.660Z,10.40
2022-11-24T16:05:18.364Z,10.40
2022-11-24T16:07:45.235Z,10.50
2022-11-24T16:10:29.454Z,10.40
2022-11-24T16:12:57.429Z,10.40
2022-11-24T16:15:24.649Z,10.40
2022-11-24T16:17:51.586Z,10.40
2022-11-24T16:20:18.839Z,10.40
2022-11-24T16:22:45.696Z,10.30
2022-11-24T16:25:13.217Z,10.20
2022-11-24T16:27:40.259Z,10.30
2022-11-24T16:30:08.504Z,10.20
2022-11-24T16:32:35.455Z,10.20
2022-11-24T16:35:04.038Z,10.20
2022-11-24T16:37:32.516Z,10.10
2022-11-24T16:40:01.508Z,10.10
2022-11-24T16:42:31.749Z,10.00
2022-11-24T16:44:58.700Z,10.10
2022-11-24T16:47:26.520Z,10.10
2022-11-24T16:49:54.478Z,10.10
2022-11-24T16:52:21.478Z,10.00
2022-11-24T16:54:49.364Z,10.00
2022-11-24T16:57:16.315Z,9.90
2022-11-24T16:59:43.538Z,9.90
2022-11-24T17:02:14.193Z,9.90
2022-11-24T17:04:41.288Z,9.90
2022-11-24T17:07:11.357Z,9.90
2022-11-24T17:10:37.018Z,9.80
2022-11-24T17:18:52.994Z,9.80
2022-11-24T17:21:26.239Z,9.70
2022-11-24T17:23:55.387Z,9.70
2022-11-24T17:26:22.597Z,9.70
2022-11-24T17:28:57.099Z,9.70
2022-11-24T17:31:28.115Z,9.70
2022-11-24T17:34:03.552Z,9.70
2022-11-24T17:36:33.103Z,9.60
2022-11-24T17:39:04.500Z,9.70
2022-11-24T17:41:33.283Z,9.60
2022-11-24T17:44:00.497Z,9.60
2022-11-24T17:46:29.202Z,9.50
2022-11-24T17:48:57.620Z,9.50
2022-11-24T17:51:26.357Z,9.50
2022-11-24T17:53:54.707Z,9.60
2022-11-24T17:56:24.257Z,9.60
2022-11-24T17:58:59.663Z,9.50
2022-11-24T18:01:30.117Z,9.50
2022-11-24T18:03:58.763Z,9.50
2022-11-24T18:06:28.761Z,9.50
2022-11-24T18:08:57.218Z,9.50
2022-11-24T18:11:32.177Z,9.50
2022-11-24T18:14:03.537Z,9.50
2022-11-24T18:16:34.157Z,9.60
2022-11-24T18:19:09.066Z,9.60
2022-11-24T18:21:41.613Z,9.60
2022-11-24T18:24:11.266Z,9.60
2022-11-24T18:26:39.424Z,9.60
2022-11-24T18:29:06.486Z,9.70
2022-11-24T18:31:35.535Z,9.60
2022-11-24T18:34:05.489Z,9.60
2022-11-24T18:36:34.309Z,9.70
2022-11-24T18:39:03.636Z,9.80
2022-11-24T18:41:30.782Z,9.80
2022-11-24T18:43:57.846Z,9.70
2022-11-24T18:46:25.157Z,9.70
2022-11-24T18:48:53.143Z,9.70
2022-11-24T18:51:20.284Z,9.60
2022-11-24T18:53:50.925Z,9.70
2022-11-24T18:56:17.858Z,9.80
2022-11-24T18:58:45.959Z,9.80
2022-11-24T19:01:22.157Z,9.80
2022-11-24T19:03:52.337Z,9.80
2022-11-24T19:06:23.885Z,9.80
2022-11-24T19:08:53.527Z,9.80
2022-11-24T19:11:23.939Z,9.80
2022-11-24T19:13:51.508Z,9.90
2022-11-24T19:16:20.371Z,9.90
2022-11-24T19:18:53.618Z,10.00
2022-11-24T19:21:21.972Z,9.90
2022-11-24T19:23:50.241Z,9.90
2022-11-24T19:26:17.391Z,10.00
2022-11-24T19:28:44.445Z,10.00
2022-11-24T19:31:13.163Z,10.00
2022-11-24T19:33:41.013Z,10.00
2022-11-24T19:36:12.919Z,10.10
2022-11-24T19:38:41.097Z,10.10
2022-11-24T19:41:13.895Z,10.20
2022-11-24T19:43:42.669Z,10.10
2022-11-24T19:46:12.296Z,10.10
2022-11-24T19:48:41.536Z,10.10
2022-11-24T19:51:13.168Z,10.10
2022-11-24T19:53:41.610Z,10.00
2022-11-24T19:56:29.871Z,10.10
2022-11-24T19:58:57.989Z,10.10
2022-11-24T20:01:34.101Z,10.00
2022-11-24T20:04:06.975Z,10.10
2022-11-24T20:06:36.893Z,10.10
2022-11-24T20:09:06.092Z,10.10
2022-11-24T20:11:34.343Z,10.10
2022-11-24T20:14:02.006Z,10.10
2022-11-24T20:16:32.100Z,10.10
2022-11-24T20:19:01.471Z,10.10
2022-11-24T20:21:33.050Z,10.10
2022-11-24T20:24:10.765Z,10.10
2022-11-24T20:26:43.415Z,10.20
2022-11-24T20:29:13.376Z,10.20
2022-11-24T20:31:47.126Z,10.20
2022-11-24T20:34:14.856Z,10.10
2022-11-24T20:36:44.804Z,10.10
2022-11-24T20:39:17.076Z,10.10
2022-11-24T20:41:44.483Z,10.20
2022-11-24T20:44:15.572Z,10.10
2022-11-24T20:46:44.258Z,10.20
2022-11-24T20:49:18.608Z,10.20
2022-11-24T20:51:54.339Z,10.20
2022-11-24T20:54:21.950Z,10.20
2022-11-24T20:56:49.121Z,10.30
2022-11-24T20:59:22.110Z,10.30
2022-11-24T21:01:52.020Z,10.30
2022-11-24T21:04:23.451Z,10.40
2022-11-24T21:06:50.798Z,10.40
2022-11-24T21:09:18.075Z,10.50
2022-11-24T21:11:46.684Z,10.50
2022-11-24T21:14:15.094Z,10.60
2022-11-24T21:16:45.177Z,10.60
2022-11-24T21:19:18.647Z,10.60
2022-11-24T21:21:48.748Z,10.60
2022-11-24T21:24:19.331Z,10.70
2022-11-24T21:26:51.734Z,10.70
2022-11-24T21:29:21.850Z,10.70
2022-11-24T21:31:50.070Z,10.80
2022-11-24T21:34:20.821Z,10.80
2022-11-24T21:36:48.102Z,10.80
2022-11-24T21:39:16.059Z,10.90
2022-11-24T21:41:43.663Z,10.80
2022-11-24T21:44:13.495Z,10.80
2022-11-24T21:46:46.138Z,10.90
2022-11-24T21:49:16.649Z,10.90
2022-11-24T21:51:44.724Z,10.90
2022-11-24T21:54:11.704Z,10.90
2022-11-24T21:56:38.554Z,11.00
2022-11-24T21:59:05.695Z,11.10
2022-11-24T22:01:33.665Z,11.00
2022-11-24T22:04:01.733Z,11.10
2022-11-24T22:06:29.597Z,11.00
2022-11-24T22:08:56.511Z,11.10
2022-11-24T22:11:25.075Z,11.10
2022-11-24T22:13:55.857Z,11.10
2022-11-24T22:16:24.286Z,11.10
2022-11-24T22:18:52.774Z,11.10
2022-11-24T22:21:23.836Z,11.10
2022-11-24T22:23:52.753Z,11.10
2022-11-24T22:26:22.011Z,11.10
2022-11-24T22:28:51.276Z,11.20
2022-11-24T22:31:30.847Z,11.10
2022-11-24T22:34:00.273Z,11.10
2022-11-24T22:36:30.504Z,11.20
2022-11-24T22:39:03.282Z,11.10
2022-11-24T22:41:31.994Z,11.20
2022-11-24T22:44:00.174Z,11.20
2022-11-24T22:46:30.761Z,11.20
2022-11-24T22:49:01.928Z,11.30
2022-11-24T22:51:33.455Z,11.30
2022-11-24T22:54:03.543Z,11.20
2022-11-24T22:56:32.598Z,11.20
2022-11-24T22:59:04.611Z,11.20
2022-11-24T23:01:36.529Z,11.30
2022-11-24T23:04:03.916Z,11.30
2022-11-24T23:06:34.399Z,11.30
2022-11-24T23:09:03.616Z,11.30
2022-11-24T23:11:38.216Z,11.40
2022-11-24T23:14:13.475Z,11.50
2022-11-24T23:16:42.285Z,11.40
2022-11-24T23:19:11.248Z,11.40
2022-11-24T23:21:39.585Z,11.40
2022-11-24T23:24:08.564Z,11.50
2022-11-24T23:26:38.711Z,11.50
2022-11-24T23:29:06.807Z,11.50
2022-11-24T23:31:34.279Z,11.60
2022-11-24T23:34:03.876Z,11.60
2022-11-24T23:36:32.723Z,11.60
2022-11-24T23:39:08.597Z,11.70
2022-11-24T23:41:36.670Z,11.70
2022-11-24T23:44:05.067Z,11.70
2022-11-24T23:46:33.774Z,11.70
2022-11-24T23:49:01.681Z,11.80
2022-11-24T23:51:32.077Z,11.80
2022-11-24T23:54:00.848Z,11.80
2022-11-24T23:56:33.050Z,11.80
2022-11-24T23:59:02.561Z,11.80
